ENRO

Røros Airport

Røros, Norway
METAR ENRO 211950Z AUTO 12002KT 9999NDV OVC003/// M24/M26 Q1010
Observed Flight Rules
Jan-21 @ 19:50 UTC (27 minutes ago)
Wind Clouds
120° at 2 knots
  • Overcast at 300' AGL
Temperatures Readings
Current -24°C / -11°F
Dewpoint -26°C / -15°F
Humidity 84%
Altimeter 29.82" Hg
Pressure 1010 hPa
Elevation 626
METAR ENRO 211950Z AUTO 12002KT 9999NDV OVC003/// M24/M26 Q1010
Observed Flight Rules
Jan-21 @ 19:50 UTC
(27 minutes ago)
Wind
120° at 2 knots
Clouds
  • Overcast at 300' AGL
Temperature Dewpoint
-24°C / -11°F -26°C / -15°F
Humidity Altimeter Pressure
84% 29.82" Hg 1010 hPa